createdAt,value
2022-10-17T00:00:56.934Z,59.33
2022-10-17T00:03:23.582Z,56.65
2022-10-17T00:05:50.237Z,67.30
2022-10-17T00:08:20.992Z,63.15
2022-10-17T00:10:57.231Z,63.10
2022-10-17T00:13:24.377Z,68.47
2022-10-17T00:15:51.124Z,69.60
2022-10-17T00:18:17.908Z,71.57
2022-10-17T00:20:44.733Z,57.28
2022-10-17T00:23:11.783Z,65.40
2022-10-17T00:25:38.424Z,58.45
2022-10-17T00:28:05.216Z,57.85
2022-10-17T00:30:32.844Z,67.47
2022-10-17T00:32:59.431Z,53.28
2022-10-17T00:35:26.160Z,55.30
2022-10-17T00:37:52.783Z,62.35
2022-10-17T00:40:20.001Z,72.30
2022-10-17T00:42:46.633Z,53.33
2022-10-17T00:45:28.636Z,66.95
2022-10-17T00:48:00.268Z,64.45
2022-10-17T00:50:27.998Z,71.85
2022-10-17T00:52:56.828Z,57.40
2022-10-17T01:00:20.513Z,53.47
2022-10-17T01:02:47.441Z,60.97
2022-10-17T01:05:15.274Z,68.40
2022-10-17T01:07:43.212Z,57.67
2022-10-17T01:10:11.269Z,71.77
2022-10-17T01:12:51.963Z,78.10
2022-10-17T01:15:33.351Z,69.55
2022-10-17T01:18:34.123Z,65.10
2022-10-17T01:21:11.271Z,66.72
2022-10-17T01:23:48.461Z,59.80
2022-10-17T01:26:24.329Z,63.63
2022-10-17T01:29:25.145Z,62.53
2022-10-17T01:32:16.421Z,66.93
2022-10-17T01:34:57.283Z,74.07
2022-10-17T01:37:28.338Z,70.53
2022-10-17T01:40:11.293Z,79.35
2022-10-17T01:42:42.320Z,70.90
2022-10-17T01:45:47.774Z,64.60
2022-10-17T01:48:36.447Z,50.30
2022-10-17T01:54:02.565Z,60.35
2022-10-17T01:56:32.061Z,66.95
2022-10-17T01:59:08.715Z,57.30
2022-10-17T02:01:38.232Z,63.83
2022-10-17T02:04:08.004Z,65.55
2022-10-17T02:06:36.263Z,64.32
2022-10-17T02:09:24.652Z,66.45
2022-10-17T02:12:13.586Z,59.30
2022-10-17T02:14:49.208Z,64.20
2022-10-17T02:17:31.094Z,46.90
2022-10-17T02:20:22.441Z,54.00
2022-10-17T02:23:22.156Z,58.42
2022-10-17T02:26:17.313Z,67.63
2022-10-17T02:29:08.059Z,55.15
2022-10-17T02:31:37.617Z,66.00
2022-10-17T02:34:16.920Z,72.25
2022-10-17T02:36:52.912Z,51.33
2022-10-17T02:39:23.163Z,41.28
2022-10-17T02:41:52.702Z,58.83
2022-10-17T02:44:20.638Z,44.22
2022-10-17T02:46:56.768Z,66.37
2022-10-17T02:49:28.965Z,70.18
2022-10-17T02:52:13.433Z,73.82
2022-10-17T02:54:53.391Z,63.25
2022-10-17T02:57:31.388Z,66.00
2022-10-17T03:00:01.319Z,61.50
2022-10-17T03:02:28.658Z,68.03
2022-10-17T03:04:56.522Z,62.40
2022-10-17T03:07:23.122Z,69.00
2022-10-17T03:09:49.784Z,60.35
2022-10-17T03:12:16.662Z,64.07
2022-10-17T03:14:43.313Z,67.85
2022-10-17T03:17:09.949Z,49.95
2022-10-17T03:19:36.585Z,61.55
2022-10-17T03:22:06.641Z,63.78
2022-10-17T03:24:33.398Z,63.08
2022-10-17T03:27:00.173Z,68.53
2022-10-17T03:29:26.800Z,73.93
2022-10-17T03:31:53.396Z,59.33
2022-10-17T03:34:20.260Z,72.53
2022-10-17T03:36:47.035Z,62.58
2022-10-17T03:39:15.932Z,66.30
2022-10-17T03:41:42.550Z,63.55
2022-10-17T03:44:09.311Z,61.13
2022-10-17T03:46:35.990Z,59.03
2022-10-17T03:49:02.614Z,51.78
2022-10-17T03:51:29.310Z,70.53
2022-10-17T03:53:55.881Z,63.30
2022-10-17T03:56:24.360Z,76.00
2022-10-17T03:58:51.797Z,63.45
2022-10-17T04:01:19.724Z,68.45
2022-10-17T04:03:54.233Z,70.17
2022-10-17T04:06:21.513Z,47.83
2022-10-17T04:08:48.461Z,62.72
2022-10-17T04:11:18.865Z,55.33
2022-10-17T04:13:46.338Z,57.45
2022-10-17T04:16:15.886Z,64.57
2022-10-17T04:18:43.421Z,61.20
2022-10-17T04:21:11.079Z,65.45
2022-10-17T04:23:38.137Z,68.53
2022-10-17T04:26:06.675Z,68.57
2022-10-17T04:28:34.062Z,76.50
2022-10-17T04:31:03.910Z,71.75
2022-10-17T04:33:32.152Z,66.53
2022-10-17T04:36:04.587Z,55.67
2022-10-17T04:38:31.980Z,58.35
2022-10-17T04:41:03.350Z,69.72
2022-10-17T04:43:35.230Z,74.72
2022-10-17T04:46:04.130Z,74.05
2022-10-17T04:48:31.178Z,49.80
2022-10-17T04:51:00.469Z,61.10
2022-10-17T04:53:27.311Z,72.97
2022-10-17T04:55:54.677Z,51.45
2022-10-17T04:58:22.598Z,59.83
2022-10-17T05:00:49.465Z,71.60
2022-10-17T05:03:16.874Z,69.43
2022-10-17T05:05:43.867Z,71.28
2022-10-17T05:08:11.863Z,70.25
2022-10-17T05:10:40.303Z,68.07
2022-10-17T05:13:08.608Z,56.72
2022-10-17T05:15:36.423Z,58.78
2022-10-17T05:18:04.378Z,76.57
2022-10-17T05:20:30.982Z,72.53
2022-10-17T05:23:00.871Z,71.50
2022-10-17T05:25:27.486Z,72.97
2022-10-17T05:27:54.464Z,69.65
2022-10-17T05:30:21.665Z,68.03
2022-10-17T05:32:48.443Z,51.47
2022-10-17T05:35:15.181Z,58.35
2022-10-17T05:37:41.920Z,72.35
2022-10-17T05:40:12.878Z,58.42
2022-10-17T05:45:11.262Z,58.25
2022-10-17T05:47:38.005Z,69.60
2022-10-17T05:50:09.286Z,54.30
2022-10-17T05:52:36.463Z,75.55
2022-10-17T05:55:04.672Z,66.50
2022-10-17T05:57:31.922Z,68.28
2022-10-17T05:59:58.730Z,72.95
2022-10-17T06:02:25.468Z,63.35
2022-10-17T06:04:52.121Z,55.35
2022-10-17T06:07:18.733Z,66.25
2022-10-17T06:12:13.010Z,68.85
2022-10-17T06:14:39.915Z,65.07
2022-10-17T06:17:08.404Z,70.55
2022-10-17T06:19:36.973Z,61.08
2022-10-17T06:22:03.645Z,68.55
2022-10-17T06:24:30.359Z,61.03
2022-10-17T06:26:57.784Z,65.10
2022-10-17T06:29:24.609Z,76.78
2022-10-17T06:31:51.907Z,81.93
2022-10-17T06:34:18.802Z,74.25
2022-10-17T06:36:45.650Z,71.82
2022-10-17T06:39:12.371Z,69.05
2022-10-17T06:41:41.046Z,66.93
2022-10-17T06:44:11.229Z,77.90
2022-10-17T06:46:39.446Z,67.30
2022-10-17T06:49:07.515Z,71.32
2022-10-17T06:51:37.931Z,60.08
2022-10-17T06:54:04.901Z,69.32
2022-10-17T06:56:31.503Z,65.82
2022-10-17T06:58:58.163Z,67.90
2022-10-17T07:01:24.816Z,69.03
2022-10-17T07:03:52.316Z,64.47
2022-10-17T07:06:19.351Z,67.88
2022-10-17T07:14:13.555Z,138.43
2022-10-17T07:16:40.131Z,65.45
2022-10-17T07:22:13.726Z,73.15
2022-10-17T07:24:40.346Z,64.47
2022-10-17T07:27:06.936Z,74.10
2022-10-17T07:29:33.601Z,76.43
2022-10-17T07:32:00.189Z,65.40
2022-10-17T07:34:27.662Z,71.32
2022-10-17T07:36:54.290Z,66.40
2022-10-17T07:39:20.848Z,70.72
2022-10-17T07:41:49.474Z,62.40
2022-10-17T07:44:16.105Z,64.97
2022-10-17T07:46:42.714Z,63.47
2022-10-17T07:49:09.340Z,63.47
2022-10-17T07:51:35.915Z,61.50
2022-10-17T07:54:02.540Z,63.50
2022-10-17T07:56:29.651Z,60.08
2022-10-17T08:01:28.918Z,60.15
2022-10-17T08:03:55.472Z,65.75
2022-10-17T08:06:22.144Z,64.53
2022-10-17T08:08:48.750Z,65.82
2022-10-17T08:11:15.839Z,58.40
2022-10-17T08:13:42.883Z,63.10
2022-10-17T08:16:12.541Z,70.65
2022-10-17T08:18:40.548Z,62.42
2022-10-17T08:21:08.284Z,59.85
2022-10-17T08:23:35.901Z,62.03
2022-10-17T08:26:04.197Z,64.07
2022-10-17T08:28:30.979Z,54.15
2022-10-17T08:31:11.654Z,62.30
2022-10-17T08:33:38.726Z,53.72
2022-10-17T08:36:06.630Z,55.78
2022-10-17T08:38:35.609Z,53.58
2022-10-17T08:41:15.567Z,53.83
2022-10-17T08:44:03.291Z,54.45
2022-10-17T08:46:35.521Z,54.85
2022-10-17T08:49:11.987Z,54.00
2022-10-17T08:51:49.425Z,59.10
2022-10-17T08:54:15.912Z,50.80
2022-10-17T08:56:49.719Z,54.60
2022-10-17T08:59:31.560Z,49.08
2022-10-17T09:02:19.806Z,51.55
2022-10-17T09:05:04.613Z,54.22
2022-10-17T09:07:59.072Z,52.08
2022-10-17T09:10:52.529Z,49.35
2022-10-17T09:13:34.046Z,53.17
2022-10-17T09:16:25.123Z,51.40
2022-10-17T09:19:04.986Z,51.22
2022-10-17T09:21:42.141Z,46.60
2022-10-17T09:24:18.323Z,49.20
2022-10-17T09:26:46.836Z,49.90
2022-10-17T09:29:24.744Z,47.20
2022-10-17T09:34:28.109Z,45.83
2022-10-17T09:36:55.326Z,53.05
2022-10-17T09:39:31.691Z,49.43
2022-10-17T09:42:00.477Z,49.78
2022-10-17T09:44:35.965Z,50.25
2022-10-17T09:47:24.321Z,49.60
2022-10-17T09:49:51.482Z,54.70
2022-10-17T09:52:56.188Z,50.10
2022-10-17T09:55:40.133Z,51.65
2022-10-17T09:58:08.312Z,49.25
2022-10-17T10:00:43.302Z,48.63
2022-10-17T10:03:22.797Z,49.92
2022-10-17T10:06:02.813Z,48.08
2022-10-17T10:08:32.790Z,53.28
2022-10-17T10:11:05.950Z,51.63
2022-10-17T10:13:34.482Z,58.00
2022-10-17T10:16:31.354Z,50.67
2022-10-17T10:18:58.727Z,53.85
2022-10-17T10:21:27.661Z,57.47
2022-10-17T10:24:12.542Z,55.20
2022-10-17T10:26:46.261Z,52.75
2022-10-17T10:29:30.713Z,49.38
2022-10-17T10:32:07.675Z,52.65
2022-10-17T10:34:37.740Z,52.85
2022-10-17T10:37:18.867Z,52.92
2022-10-17T10:39:50.493Z,49.75
2022-10-17T10:42:20.106Z,47.63
2022-10-17T10:44:48.688Z,51.38
2022-10-17T10:47:28.634Z,50.17
2022-10-17T10:50:26.192Z,55.38
2022-10-17T10:53:05.523Z,50.00
2022-10-17T10:55:45.345Z,50.05
2022-10-17T10:58:32.690Z,58.55
2022-10-17T11:01:06.110Z,56.80
2022-10-17T11:03:46.557Z,47.10
2022-10-17T11:06:26.201Z,46.70
2022-10-17T11:09:00.582Z,52.50
2022-10-17T11:11:40.568Z,56.80
2022-10-17T11:14:15.049Z,50.33
2022-10-17T11:16:55.880Z,49.85
2022-10-17T11:19:33.943Z,52.92
2022-10-17T11:25:11.582Z,49.22
2022-10-17T11:27:38.439Z,52.50
2022-10-17T11:30:06.202Z,57.63
2022-10-17T11:32:54.235Z,51.97
2022-10-17T11:38:34.757Z,52.70
2022-10-17T11:41:03.036Z,49.50
2022-10-17T11:46:12.509Z,51.88
2022-10-17T11:48:52.874Z,49.10
2022-10-17T11:54:33.091Z,48.35
2022-10-17T11:57:27.347Z,45.33
2022-10-17T11:59:59.319Z,45.55
2022-10-17T12:02:49.499Z,46.03
2022-10-17T12:05:36.230Z,52.78
2022-10-17T12:08:34.685Z,49.70
2022-10-17T12:11:19.156Z,46.90
2022-10-17T12:13:45.627Z,47.92
2022-10-17T12:16:21.328Z,50.95
2022-10-17T12:19:06.191Z,50.17
2022-10-17T12:22:03.486Z,50.15
2022-10-17T12:24:43.314Z,51.80
2022-10-17T12:27:38.696Z,52.03
2022-10-17T12:30:14.813Z,48.15
2022-10-17T12:33:06.782Z,46.58
2022-10-17T12:35:36.997Z,46.08
2022-10-17T12:38:16.285Z,45.30
2022-10-17T12:40:48.529Z,45.58
2022-10-17T12:43:15.519Z,50.92
2022-10-17T12:45:54.855Z,49.28
2022-10-17T12:49:01.087Z,45.92
2022-10-17T12:51:37.910Z,45.33
2022-10-17T12:54:16.341Z,45.92
2022-10-17T12:56:45.728Z,41.17
2022-10-17T12:59:15.378Z,50.28
2022-10-17T13:01:46.553Z,46.25
2022-10-17T13:04:13.628Z,46.47
2022-10-17T13:06:58.874Z,45.78
2022-10-17T13:09:31.467Z,46.47
2022-10-17T13:12:01.397Z,41.50
2022-10-17T13:14:29.710Z,46.60
2022-10-17T13:17:04.970Z,48.40
2022-10-17T13:19:44.082Z,41.25
2022-10-17T13:22:27.299Z,46.15
2022-10-17T13:25:09.999Z,51.08
2022-10-17T13:27:37.514Z,47.28
2022-10-17T13:30:23.414Z,54.60
2022-10-17T13:32:51.817Z,51.13
2022-10-17T13:38:28.717Z,48.00
2022-10-17T13:41:01.992Z,46.53
2022-10-17T13:43:38.753Z,50.17
2022-10-17T13:46:25.300Z,45.85
2022-10-17T13:48:52.714Z,44.07
2022-10-17T13:51:19.611Z,46.17
2022-10-17T13:53:46.094Z,43.42
2022-10-17T13:56:29.639Z,42.88
2022-10-17T13:59:00.213Z,44.20
2022-10-17T14:01:28.966Z,41.50
2022-10-17T14:04:07.865Z,44.45
2022-10-17T14:06:45.168Z,48.15
2022-10-17T14:09:32.985Z,48.45
2022-10-17T14:12:02.106Z,48.80
2022-10-17T14:14:30.375Z,44.53
2022-10-17T14:17:01.191Z,50.00
2022-10-17T14:19:31.096Z,37.47
2022-10-17T14:22:22.987Z,52.50
2022-10-17T14:24:51.987Z,51.15
2022-10-17T14:27:55.831Z,45.58
2022-10-17T14:30:51.739Z,46.42
2022-10-17T14:33:31.961Z,48.70
2022-10-17T14:36:01.505Z,41.42
2022-10-17T14:38:29.384Z,50.33
2022-10-17T14:41:37.704Z,44.80
2022-10-17T14:44:08.247Z,46.33
2022-10-17T14:46:36.775Z,41.65
2022-10-17T14:49:06.911Z,47.38
2022-10-17T14:51:44.709Z,53.13
2022-10-17T14:54:26.504Z,40.45
2022-10-17T14:56:54.847Z,49.63
2022-10-17T15:02:11.604Z,40.35
2022-10-17T15:04:38.108Z,50.00
2022-10-17T15:07:04.880Z,42.10
2022-10-17T15:09:31.487Z,37.88
2022-10-17T15:12:07.082Z,51.58
2022-10-17T15:14:33.613Z,55.20
2022-10-17T15:17:00.676Z,49.33
2022-10-17T15:19:27.170Z,43.47
2022-10-17T15:21:53.668Z,40.90
2022-10-17T15:24:20.293Z,45.13
2022-10-17T15:26:46.933Z,51.83
2022-10-17T15:29:16.062Z,43.83
2022-10-17T15:31:42.669Z,48.35
2022-10-17T15:34:10.241Z,38.63
2022-10-17T15:36:41.541Z,48.17
2022-10-17T15:39:09.879Z,43.90
2022-10-17T15:44:02.912Z,34.35
2022-10-17T15:46:33.008Z,41.33
2022-10-17T15:49:07.580Z,51.63
2022-10-17T15:51:34.337Z,34.65
2022-10-17T15:54:01.661Z,47.15
2022-10-17T15:56:31.777Z,48.27
2022-10-17T15:58:58.653Z,41.03
2022-10-17T16:01:28.093Z,42.63
2022-10-17T16:03:55.020Z,45.67
2022-10-17T16:06:22.334Z,34.72
2022-10-17T16:08:49.643Z,31.70
2022-10-17T16:11:31.413Z,44.72
2022-10-17T16:14:00.894Z,44.28
2022-10-17T16:16:28.995Z,36.80
2022-10-17T16:18:55.835Z,30.35
2022-10-17T16:21:25.895Z,32.55
2022-10-17T16:23:53.106Z,39.38
2022-10-17T16:26:20.055Z,27.88
2022-10-17T16:28:46.741Z,44.50
2022-10-17T16:31:23.502Z,34.22
2022-10-17T16:33:51.898Z,33.95
2022-10-17T16:36:18.681Z,45.92
2022-10-17T16:38:45.636Z,34.90
2022-10-17T16:41:29.579Z,33.13
2022-10-17T16:43:58.719Z,31.15
2022-10-17T16:46:26.829Z,49.22
2022-10-17T16:48:53.868Z,47.08
2022-10-17T16:51:20.868Z,42.15
2022-10-17T16:53:50.189Z,37.55
2022-10-17T16:56:19.574Z,42.42
2022-10-17T16:58:46.776Z,37.88
2022-10-17T17:01:20.132Z,35.10
2022-10-17T17:03:47.842Z,32.42
2022-10-17T17:06:19.123Z,38.13
2022-10-17T17:08:46.135Z,41.95
2022-10-17T17:11:15.565Z,35.35
2022-10-17T17:13:42.799Z,37.83
2022-10-17T17:16:18.302Z,42.90
2022-10-17T17:18:46.090Z,43.90
2022-10-17T17:21:13.914Z,49.57
2022-10-17T17:23:42.269Z,43.10
2022-10-17T17:26:15.094Z,38.30
2022-10-17T17:28:42.346Z,36.40
2022-10-17T17:31:11.538Z,27.73
2022-10-17T17:33:39.473Z,44.70
2022-10-17T17:36:07.732Z,49.58
2022-10-17T17:38:36.261Z,47.30
2022-10-17T17:41:04.088Z,38.20
2022-10-17T17:43:30.669Z,49.67
2022-10-17T17:45:57.284Z,42.63
2022-10-17T17:48:24.144Z,44.80
2022-10-17T17:50:50.765Z,40.42
2022-10-17T17:53:18.957Z,48.78
2022-10-17T17:55:45.683Z,49.58
2022-10-17T17:58:12.657Z,37.00
2022-10-17T18:00:40.631Z,43.13
2022-10-17T18:03:08.105Z,51.03
2022-10-17T18:05:34.704Z,62.15
2022-10-17T18:08:01.269Z,51.00
2022-10-17T18:10:29.458Z,51.67
2022-10-17T18:12:55.992Z,48.03
2022-10-17T18:15:22.805Z,56.13
2022-10-17T18:17:49.363Z,46.58
2022-10-17T18:20:16.080Z,57.22
2022-10-17T18:22:42.788Z,43.55
2022-10-17T18:25:09.558Z,54.05
2022-10-17T18:27:36.494Z,43.97
2022-10-17T18:30:03.414Z,42.15
2022-10-17T18:32:31.912Z,52.92
2022-10-17T18:34:58.880Z,55.78
2022-10-17T18:37:25.440Z,57.15
2022-10-17T18:39:55.316Z,55.45
2022-10-17T18:42:23.279Z,53.78
2022-10-17T18:44:50.072Z,59.28
2022-10-17T18:47:16.791Z,54.65
2022-10-17T18:49:43.592Z,44.38
2022-10-17T18:52:10.322Z,56.75
2022-10-17T18:54:36.876Z,51.83
2022-10-17T18:57:03.501Z,42.75
2022-10-17T18:59:30.091Z,56.40
2022-10-17T19:01:56.889Z,49.05
2022-10-17T19:04:23.871Z,58.17
2022-10-17T19:06:50.383Z,57.13
2022-10-17T19:09:17.334Z,54.63
2022-10-17T19:11:44.155Z,59.63
2022-10-17T19:14:15.456Z,50.30
2022-10-17T19:16:46.140Z,43.03
2022-10-17T19:19:16.788Z,49.47
2022-10-17T19:21:43.986Z,53.53
2022-10-17T19:24:25.039Z,40.05
2022-10-17T19:26:54.279Z,49.80
2022-10-17T19:29:22.760Z,45.90
2022-10-17T19:31:49.595Z,48.20
2022-10-17T19:34:17.447Z,54.75
2022-10-17T19:36:44.730Z,56.63
2022-10-17T19:39:29.768Z,50.67
2022-10-17T19:41:56.309Z,48.40
2022-10-17T19:44:22.879Z,57.00
2022-10-17T19:46:49.565Z,54.20
2022-10-17T19:49:16.508Z,52.58
2022-10-17T19:51:43.366Z,57.35
2022-10-17T19:54:09.973Z,57.88
2022-10-17T19:56:38.301Z,59.05
2022-10-17T19:59:06.449Z,57.50
2022-10-17T20:01:35.796Z,48.33
2022-10-17T20:04:02.531Z,44.75
2022-10-17T20:06:29.352Z,50.85
2022-10-17T20:08:56.411Z,48.38
2022-10-17T20:11:25.321Z,51.35
2022-10-17T20:13:52.749Z,47.45
2022-10-17T20:16:24.819Z,42.75
2022-10-17T20:18:54.576Z,32.83
2022-10-17T20:21:32.394Z,31.55
2022-10-17T20:23:59.885Z,32.30
2022-10-17T20:26:43.870Z,26.73
2022-10-17T20:29:21.378Z,28.98
2022-10-17T20:31:48.759Z,20.98
2022-10-17T20:34:17.237Z,21.02
2022-10-17T20:36:44.136Z,21.05
2022-10-17T20:39:12.871Z,21.23
2022-10-17T20:44:07.064Z,20.05
2022-10-17T20:46:39.765Z,28.73
2022-10-17T20:49:18.236Z,29.83
2022-10-17T20:51:45.677Z,28.50
2022-10-17T20:54:12.689Z,29.95
2022-10-17T20:56:40.930Z,30.10
2022-10-17T20:59:12.675Z,32.85
2022-10-17T21:01:39.874Z,33.80
2022-10-17T21:04:33.215Z,32.63
2022-10-17T21:06:53.673Z,35.42
2022-10-17T21:09:20.854Z,35.20
2022-10-17T21:11:48.352Z,39.63
2022-10-17T21:14:16.681Z,42.63
2022-10-17T21:16:43.597Z,42.75
2022-10-17T21:19:11.624Z,50.05
2022-10-17T21:21:41.102Z,45.70
2022-10-17T21:24:13.617Z,51.28
2022-10-17T21:26:41.486Z,51.47
2022-10-17T21:29:08.018Z,42.17
2022-10-17T21:31:36.671Z,48.20
2022-10-17T21:34:08.905Z,45.67
2022-10-17T21:36:35.782Z,50.35
2022-10-17T21:39:03.403Z,41.17
2022-10-17T21:41:30.829Z,43.92
2022-10-17T21:44:01.979Z,41.78
2022-10-17T21:46:28.875Z,38.10
2022-10-17T21:48:55.587Z,37.53
2022-10-17T21:51:24.673Z,36.72
2022-10-17T21:53:52.915Z,35.25
2022-10-17T21:56:22.283Z,35.90
2022-10-17T21:58:50.074Z,45.88
2022-10-17T22:01:22.117Z,43.88
2022-10-17T22:03:53.704Z,35.25
2022-10-17T22:06:39.206Z,35.60
2022-10-17T22:09:11.494Z,36.45
2022-10-17T22:11:38.027Z,22.65
2022-10-17T22:14:12.159Z,25.20
2022-10-17T22:16:39.316Z,33.78
2022-10-17T22:19:07.378Z,26.88
2022-10-17T22:21:36.077Z,26.23
2022-10-17T22:24:07.032Z,25.65
2022-10-17T22:26:35.627Z,21.90
2022-10-17T22:29:03.042Z,25.80
2022-10-17T22:31:29.599Z,28.85
2022-10-17T22:33:56.388Z,23.35
2022-10-17T22:36:23.131Z,23.50
2022-10-17T22:38:49.654Z,21.23
2022-10-17T22:41:16.275Z,22.98
2022-10-17T22:43:42.981Z,27.05
2022-10-17T22:46:13.012Z,26.55
2022-10-17T22:48:40.161Z,34.45
2022-10-17T22:51:06.824Z,31.73
2022-10-17T22:53:35.222Z,40.58
2022-10-17T22:56:05.147Z,33.15
2022-10-17T22:58:34.308Z,37.17
2022-10-17T23:01:01.554Z,39.85
2022-10-17T23:03:29.337Z,39.53
2022-10-17T23:05:56.748Z,46.42
2022-10-17T23:08:23.959Z,43.40
2022-10-17T23:10:50.555Z,42.70
2022-10-17T23:13:17.379Z,41.22
2022-10-17T23:15:44.066Z,37.13
2022-10-17T23:18:10.850Z,33.95
2022-10-17T23:20:37.721Z,40.58
2022-10-17T23:23:04.995Z,38.63
2022-10-17T23:25:33.975Z,33.15
2022-10-17T23:28:00.815Z,37.67
2022-10-17T23:30:27.388Z,42.22
2022-10-17T23:32:53.954Z,34.75
2022-10-17T23:35:20.498Z,34.35
2022-10-17T23:37:47.035Z,33.70
2022-10-17T23:40:13.915Z,35.05
2022-10-17T23:42:40.427Z,36.67
2022-10-17T23:45:07.916Z,35.55
2022-10-17T23:47:34.506Z,37.85
2022-10-17T23:50:01.069Z,42.55
2022-10-17T23:52:27.590Z,39.13
2022-10-17T23:54:54.107Z,37.80
2022-10-17T23:57:20.755Z,36.40
2022-10-17T23:59:47.315Z,36.95
